Time;durP1;ratioP1;P1;durP2;ratioP2;P2;SDS_P1;SDS_P2;PMS_P1;PMS_P2;Temp;Humidity;BMP_temperature;BMP_pressure;BME280_temperature;BME280_humidity;BME280_pressure;Samples;Min_cycle;Max_cycle;Signal;HPM_P1;HPM_P2
2021/10/03 00:01:04;;;;;;;2.72;1.52;;;24.70;50.50;;;;;;4968122;28;20039;-51
2021/10/03 00:03:30;;;;;;;2.30;1.50;;;24.70;50.50;;;;;;4965049;28;20030;-60
2021/10/03 00:05:58;;;;;;;2.60;1.45;;;24.70;50.50;;;;;;4968747;28;20038;-60
2021/10/03 00:08:25;;;;;;;2.58;1.50;;;24.70;50.50;;;;;;4971609;28;20419;-59
2021/10/03 00:10:52;;;;;;;2.67;1.50;;;24.60;50.50;;;;;;4963832;28;20077;-55
2021/10/03 00:13:18;;;;;;;3.28;1.48;;;24.60;50.60;;;;;;4973187;28;20057;-55
2021/10/03 00:15:44;;;;;;;2.30;1.50;;;24.60;50.60;;;;;;4975066;28;20030;-51
2021/10/03 00:18:10;;;;;;;2.40;1.40;;;24.60;50.60;;;;;;4970928;28;20034;-53
2021/10/03 00:20:37;;;;;;;2.83;1.50;;;24.60;50.60;;;;;;4963238;28;20038;-55
2021/10/03 00:23:03;;;;;;;3.33;1.50;;;24.50;50.60;;;;;;4973118;28;20019;-54
2021/10/03 00:25:28;;;;;;;2.67;1.52;;;24.50;50.60;;;;;;4968967;28;20061;-57
2021/10/03 00:27:55;;;;;;;2.03;1.40;;;24.50;50.60;;;;;;4967573;28;20440;-60
2021/10/03 00:30:22;;;;;;;2.28;1.40;;;24.50;50.60;;;;;;4978158;28;20148;-59
2021/10/03 00:32:48;;;;;;;2.50;1.48;;;24.50;50.70;;;;;;4989407;28;20022;-60
2021/10/03 00:35:14;;;;;;;2.15;1.40;;;24.40;50.70;;;;;;5002807;28;20029;-57
2021/10/03 00:37:40;;;;;;;2.30;1.50;;;24.50;50.70;;;;;;4990440;28;20065;-59
2021/10/03 00:40:07;;;;;;;2.25;1.55;;;24.40;50.70;;;;;;4984052;28;20037;-54
2021/10/03 00:42:33;;;;;;;1.80;1.27;;;24.40;50.70;;;;;;4989786;28;20122;-56
2021/10/03 00:44:59;;;;;;;2.03;1.65;;;24.40;50.80;;;;;;4986526;28;20038;-57
2021/10/03 00:47:24;;;;;;;2.75;1.50;;;24.40;50.80;;;;;;4985657;28;20061;-55
2021/10/03 00:49:50;;;;;;;2.30;1.50;;;24.30;51.30;;;;;;4984048;28;20039;-59
2021/10/03 00:52:16;;;;;;;2.63;1.40;;;24.30;50.80;;;;;;4993981;28;20040;-56
2021/10/03 00:54:41;;;;;;;2.85;1.50;;;24.30;50.80;;;;;;4999750;28;20037;-60
2021/10/03 00:57:07;;;;;;;2.63;1.50;;;24.30;50.80;;;;;;4986384;28;20066;-59
2021/10/03 00:59:34;;;;;;;2.63;1.70;;;24.30;50.80;;;;;;4997891;28;20061;-56
2021/10/03 01:02:00;;;;;;;2.50;1.50;;;24.30;50.90;;;;;;4964454;28;20079;-56
2021/10/03 01:04:26;;;;;;;1.83;1.38;;;24.20;50.90;;;;;;4972843;28;20507;-60
2021/10/03 01:06:52;;;;;;;2.47;1.48;;;24.20;50.90;;;;;;4973305;28;20060;-55
2021/10/03 01:09:21;;;;;;;2.65;1.80;;;24.20;50.90;;;;;;4959758;28;20042;-56
2021/10/03 01:11:48;;;;;;;2.10;1.33;;;24.20;51.00;;;;;;4977181;28;20034;-52
2021/10/03 01:14:16;;;;;;;2.05;1.45;;;24.20;51.00;;;;;;4959553;28;20446;-54
2021/10/03 01:16:41;;;;;;;2.78;1.40;;;24.10;51.00;;;;;;4977658;28;20030;-59
2021/10/03 01:19:08;;;;;;;2.20;1.40;;;24.10;51.00;;;;;;4973720;28;20027;-55
2021/10/03 01:21:34;;;;;;;2.72;1.35;;;24.10;51.10;;;;;;4965551;28;20038;-53
2021/10/03 01:24:00;;;;;;;2.05;1.30;;;24.10;51.10;;;;;;4965615;28;20027;-50
2021/10/03 01:26:27;;;;;;;2.42;1.55;;;24.00;51.10;;;;;;4969705;28;20582;-60
2021/10/03 01:28:54;;;;;;;2.30;1.40;;;24.00;51.10;;;;;;4973618;28;20120;-59
2021/10/03 01:31:25;;;;;;;2.00;1.30;;;24.00;51.10;;;;;;4971467;28;20378;-55
2021/10/03 01:33:52;;;;;;;3.15;1.40;;;23.90;51.20;;;;;;4969731;28;20752;-60
2021/10/03 01:36:19;;;;;;;1.55;1.20;;;23.90;51.30;;;;;;4989377;28;20113;-55
2021/10/03 01:38:45;;;;;;;1.63;1.20;;;23.90;51.20;;;;;;4970039;28;20234;-58
2021/10/03 01:41:11;;;;;;;1.98;1.40;;;23.90;51.40;;;;;;4969270;28;20128;-53
2021/10/03 01:43:36;;;;;;;1.90;1.50;;;23.90;51.40;;;;;;4977950;28;20027;-54
2021/10/03 01:46:02;;;;;;;2.08;1.30;;;23.90;51.40;;;;;;4974352;28;20086;-60
2021/10/03 01:48:28;;;;;;;1.60;1.20;;;23.80;51.40;;;;;;4985613;28;20022;-58
2021/10/03 01:51:13;;;;;;;1.92;1.30;;;23.80;51.40;;;;;;4970248;28;20046;-55
2021/10/03 01:53:59;;;;;;;1.70;1.30;;;23.80;51.40;;;;;;4983351;28;20109;-55
2021/10/03 01:56:28;;;;;;;1.83;1.33;;;23.80;51.40;;;;;;4969913;28;20042;-55
2021/10/03 01:58:57;;;;;;;2.00;1.30;;;23.80;51.40;;;;;;4963306;28;20057;-57
2021/10/03 02:01:34;;;;;;;;;;;23.80;51.50;;;;;;4967124;28;20023;-59
2021/10/03 02:04:05;;;;;;;1.92;1.23;;;23.70;51.40;;;;;;4964228;28;19993;-59
2021/10/03 02:06:31;;;;;;;1.70;1.20;;;23.80;51.40;;;;;;4981465;28;20038;-52
2021/10/03 02:08:57;;;;;;;1.90;1.30;;;23.70;51.40;;;;;;4973088;28;20049;-52
2021/10/03 02:11:26;;;;;;;1.98;1.30;;;23.70;51.40;;;;;;4974434;28;20385;-53
2021/10/03 02:13:51;;;;;;;2.20;1.35;;;23.70;51.50;;;;;;4980702;28;20689;-55
2021/10/03 02:16:17;;;;;;;1.58;1.20;;;23.70;51.50;;;;;;4984822;28;20160;-59
2021/10/03 02:18:47;;;;;;;1.65;1.20;;;23.70;51.50;;;;;;4964092;28;20122;-60
2021/10/03 02:21:14;;;;;;;2.08;1.45;;;23.70;51.50;;;;;;4972201;28;20023;-56
2021/10/03 02:23:41;;;;;;;1.95;1.50;;;23.70;51.50;;;;;;4960796;28;20030;-55
2021/10/03 02:26:07;;;;;;;2.25;1.35;;;23.60;51.50;;;;;;4967715;28;20045;-60
2021/10/03 02:28:33;;;;;;;2.33;1.40;;;23.60;52.00;;;;;;4977141;28;20031;-57
2021/10/03 02:31:02;;;;;;;1.70;1.27;;;23.60;51.50;;;;;;4968925;28;20030;-48
2021/10/03 02:33:27;;;;;;;2.22;1.40;;;23.60;51.50;;;;;;4968220;28;20095;-60
2021/10/03 02:35:54;;;;;;;2.00;1.35;;;23.60;51.50;;;;;;4978329;28;20072;-59
2021/10/03 02:38:23;;;;;;;2.25;1.42;;;23.60;51.60;;;;;;4969438;28;20163;-59
2021/10/03 02:40:51;;;;;;;2.22;1.50;;;23.60;51.60;;;;;;4965502;28;20030;-59
2021/10/03 02:43:18;;;;;;;2.20;1.27;;;23.60;51.60;;;;;;4967983;28;20062;-57
2021/10/03 02:45:47;;;;;;;1.67;1.27;;;23.60;51.60;;;;;;4974167;28;20027;-59
2021/10/03 02:48:13;;;;;;;2.60;1.52;;;23.60;51.70;;;;;;4974344;28;20042;-59
2021/10/03 02:50:39;;;;;;;2.25;1.50;;;23.50;51.60;;;;;;4970283;28;20062;-59
2021/10/03 02:53:09;;;;;;;2.70;1.60;;;23.50;51.60;;;;;;4963957;28;20053;-54
2021/10/03 02:55:38;;;;;;;2.15;1.40;;;23.50;51.60;;;;;;4985651;28;20077;-52
2021/10/03 02:58:05;;;;;;;2.17;1.27;;;23.50;51.60;;;;;;4976543;28;20038;-59
2021/10/03 03:00:33;;;;;;;2.15;1.40;;;23.50;51.70;;;;;;4957240;28;20114;-55
2021/10/03 03:02:58;;;;;;;2.10;1.40;;;23.50;51.70;;;;;;4972569;28;20232;-56
2021/10/03 03:05:24;;;;;;;1.38;1.10;;;23.50;51.70;;;;;;4964128;28;20109;-59
2021/10/03 03:07:50;;;;;;;1.88;1.25;;;23.40;51.70;;;;;;4979648;28;20493;-60
2021/10/03 03:10:15;;;;;;;1.67;1.20;;;23.40;51.70;;;;;;4988360;28;20022;-60
2021/10/03 03:12:41;;;;;;;1.90;1.38;;;23.40;51.70;;;;;;4974963;28;20037;-51
2021/10/03 03:15:08;;;;;;;1.98;1.23;;;23.40;51.70;;;;;;4978126;28;20060;-57
2021/10/03 03:17:34;;;;;;;1.88;1.40;;;23.40;51.70;;;;;;4984057;28;20038;-60
2021/10/03 03:20:01;;;;;;;2.20;1.42;;;23.40;51.70;;;;;;4982066;28;20057;-59
2021/10/03 03:22:26;;;;;;;1.90;1.23;;;23.40;51.70;;;;;;4971874;28;20078;-59
2021/10/03 03:24:52;;;;;;;1.95;1.33;;;23.40;51.80;;;;;;4968277;28;20026;-60
2021/10/03 03:27:18;;;;;;;2.35;1.40;;;23.40;51.80;;;;;;4974121;28;20734;-60
2021/10/03 03:29:44;;;;;;;1.83;1.20;;;23.30;51.80;;;;;;4982165;28;20047;-59
2021/10/03 03:32:10;;;;;;;1.67;1.38;;;23.30;51.80;;;;;;4971460;28;20434;-53
2021/10/03 03:34:35;;;;;;;1.77;1.20;;;23.30;51.80;;;;;;4976535;28;20042;-60
2021/10/03 03:37:01;;;;;;;1.83;1.30;;;23.30;51.80;;;;;;4965351;28;20034;-52
2021/10/03 03:39:27;;;;;;;2.00;1.40;;;23.30;51.80;;;;;;4964020;28;20034;-55
2021/10/03 03:41:52;;;;;;;1.77;1.20;;;23.30;51.80;;;;;;4978630;28;20027;-60
2021/10/03 03:44:18;;;;;;;1.60;1.20;;;23.30;51.80;;;;;;4986937;28;20054;-59
2021/10/03 03:46:44;;;;;;;2.08;1.40;;;23.30;51.80;;;;;;4970612;28;20176;-59
2021/10/03 03:49:09;;;;;;;2.10;1.40;;;23.30;51.90;;;;;;4986241;28;20033;-57
2021/10/03 03:51:35;;;;;;;2.15;1.40;;;23.30;51.90;;;;;;4959443;28;20046;-59
2021/10/03 03:54:02;;;;;;;2.05;1.40;;;23.30;51.90;;;;;;4972992;28;20153;-53
2021/10/03 03:56:27;;;;;;;1.95;1.20;;;23.30;51.90;;;;;;4966771;28;20037;-60
2021/10/03 03:58:53;;;;;;;2.22;1.35;;;23.20;51.80;;;;;;4975578;28;20026;-59
2021/10/03 04:01:20;;;;;;;1.95;1.42;;;23.20;51.90;;;;;;4967932;28;20495;-50
2021/10/03 04:03:46;;;;;;;1.95;1.33;;;23.20;51.90;;;;;;4988972;28;20108;-60
2021/10/03 04:06:12;;;;;;;1.60;1.15;;;23.20;51.90;;;;;;4965193;28;20023;-60
2021/10/03 04:08:38;;;;;;;1.70;1.38;;;23.20;51.90;;;;;;4987623;28;20022;-59
2021/10/03 04:11:04;;;;;;;1.73;1.30;;;23.20;52.00;;;;;;4977608;28;20129;-54
2021/10/03 04:13:30;;;;;;;1.70;1.20;;;23.10;51.90;;;;;;4976266;28;20164;-60
2021/10/03 04:15:55;;;;;;;1.60;1.17;;;23.10;51.90;;;;;;4972790;28;20070;-60
2021/10/03 04:18:21;;;;;;;2.00;1.30;;;23.10;52.00;;;;;;4984686;28;20148;-55
2021/10/03 04:20:47;;;;;;;1.70;1.30;;;23.10;52.00;;;;;;4967851;28;20042;-51
2021/10/03 04:23:12;;;;;;;1.60;1.20;;;23.10;52.00;;;;;;4963816;28;20038;-56
2021/10/03 04:25:38;;;;;;;1.73;1.20;;;23.10;52.00;;;;;;4961184;28;20022;-57
2021/10/03 04:28:03;;;;;;;1.60;1.10;;;23.10;52.00;;;;;;4970041;28;20050;-59
2021/10/03 04:30:29;;;;;;;2.55;1.30;;;23.10;52.00;;;;;;4978082;28;20425;-59
2021/10/03 04:32:55;;;;;;;1.65;1.17;;;23.10;52.10;;;;;;4977490;28;20542;-55
2021/10/03 04:35:21;;;;;;;1.95;1.10;;;23.10;52.00;;;;;;4970327;28;20037;-53
2021/10/03 04:37:46;;;;;;;2.17;1.15;;;23.10;52.00;;;;;;4978424;28;20037;-49
2021/10/03 04:40:12;;;;;;;1.60;1.10;;;23.10;52.00;;;;;;4952582;28;20102;-60
2021/10/03 04:42:38;;;;;;;1.90;1.30;;;23.00;52.00;;;;;;4965501;28;20031;-53
2021/10/03 04:45:05;;;;;;;2.40;1.17;;;23.00;52.00;;;;;;4976659;28;20027;-55
2021/10/03 04:47:31;;;;;;;1.65;1.20;;;23.10;52.10;;;;;;4973721;28;20054;-60
2021/10/03 04:49:58;;;;;;;2.10;1.30;;;23.00;52.10;;;;;;4959639;28;20149;-53
2021/10/03 04:52:25;;;;;;;1.63;1.23;;;23.00;52.10;;;;;;4959051;28;20055;-54
2021/10/03 04:54:51;;;;;;;2.03;1.30;;;23.00;52.10;;;;;;4971255;28;20106;-59
2021/10/03 04:57:17;;;;;;;1.50;1.10;;;23.00;52.10;;;;;;4966252;28;20032;-59
2021/10/03 04:59:43;;;;;;;1.70;1.08;;;23.00;52.10;;;;;;4965408;28;20027;-60
2021/10/03 05:02:09;;;;;;;1.60;1.30;;;23.00;52.10;;;;;;4965732;28;20124;-60
2021/10/03 05:04:34;;;;;;;2.17;1.30;;;23.00;52.10;;;;;;4973154;28;20477;-59
2021/10/03 05:07:01;;;;;;;1.83;1.23;;;23.00;52.10;;;;;;4969678;28;20022;-56
2021/10/03 05:09:26;;;;;;;2.25;1.20;;;23.00;52.10;;;;;;4972675;28;20043;-55
2021/10/03 05:11:52;;;;;;;1.88;1.27;;;22.90;52.10;;;;;;4975174;28;20030;-59
2021/10/03 05:14:18;;;;;;;2.25;1.23;;;23.00;52.20;;;;;;4970580;28;20031;-55
2021/10/03 05:16:44;;;;;;;1.55;1.15;;;23.00;52.20;;;;;;4975928;28;20034;-57
2021/10/03 05:19:10;;;;;;;1.60;1.17;;;22.90;52.20;;;;;;4976935;28;20043;-58
2021/10/03 05:21:36;;;;;;;1.60;1.20;;;22.90;52.20;;;;;;4976684;28;20035;-55
2021/10/03 05:24:02;;;;;;;2.20;1.30;;;22.90;52.20;;;;;;4971278;28;20038;-56
2021/10/03 05:26:27;;;;;;;1.80;1.23;;;22.90;52.20;;;;;;4975860;28;20058;-57
2021/10/03 05:28:53;;;;;;;1.80;1.20;;;22.80;52.20;;;;;;4966890;28;20112;-55
2021/10/03 05:31:19;;;;;;;1.65;1.15;;;22.90;52.30;;;;;;4973780;28;20061;-53
2021/10/03 05:33:45;;;;;;;1.20;1.00;;;22.90;52.30;;;;;;4968526;28;20415;-56
2021/10/03 05:36:11;;;;;;;1.60;1.23;;;22.90;52.30;;;;;;4977951;28;20057;-61
2021/10/03 05:38:37;;;;;;;1.35;1.20;;;22.80;52.20;;;;;;4960281;28;20063;-53
2021/10/03 05:41:03;;;;;;;1.50;1.10;;;22.80;52.30;;;;;;4972440;28;20031;-52
2021/10/03 05:43:28;;;;;;;1.20;0.90;;;22.80;52.30;;;;;;4979033;28;20045;-60
2021/10/03 05:45:54;;;;;;;1.08;0.93;;;22.80;52.30;;;;;;4963619;28;20072;-57
2021/10/03 05:48:21;;;;;;;1.85;1.10;;;22.80;52.40;;;;;;4968376;28;20561;-60
2021/10/03 05:50:47;;;;;;;1.67;1.20;;;22.80;52.30;;;;;;4982665;28;20037;-60
2021/10/03 05:53:13;;;;;;;1.35;1.15;;;22.80;52.40;;;;;;4972937;28;20071;-57
2021/10/03 05:55:38;;;;;;;2.17;1.20;;;22.80;52.40;;;;;;4968122;28;20069;-53
2021/10/03 05:58:04;;;;;;;1.77;1.20;;;22.80;52.40;;;;;;4979982;28;20041;-60
2021/10/03 06:00:30;;;;;;;1.85;1.30;;;22.80;52.40;;;;;;4957951;28;20090;-53
2021/10/03 06:02:56;;;;;;;1.40;1.10;;;22.80;52.40;;;;;;4972135;28;20432;-61
2021/10/03 06:05:22;;;;;;;1.73;1.35;;;22.80;52.40;;;;;;4974141;28;20029;-54
2021/10/03 06:07:47;;;;;;;1.67;1.20;;;22.80;52.40;;;;;;4967358;28;20418;-60
2021/10/03 06:10:13;;;;;;;1.90;1.25;;;22.80;52.40;;;;;;4965600;28;20027;-59
2021/10/03 06:12:39;;;;;;;1.52;1.20;;;22.70;52.40;;;;;;4973476;28;20110;-59
2021/10/03 06:15:06;;;;;;;1.70;1.13;;;22.70;52.40;;;;;;4961063;28;20414;-51
2021/10/03 06:17:31;;;;;;;1.30;1.10;;;22.80;52.40;;;;;;4973822;28;20031;-55
2021/10/03 06:19:57;;;;;;;1.65;1.10;;;22.70;52.40;;;;;;4961415;28;20030;-58
2021/10/03 06:22:25;;;;;;;1.63;1.10;;;22.70;52.40;;;;;;4968242;28;20513;-60
2021/10/03 06:24:52;;;;;;;1.80;1.25;;;22.70;52.40;;;;;;4962029;28;20104;-52
2021/10/03 06:27:18;;;;;;;1.35;1.00;;;22.80;52.40;;;;;;4970325;28;20027;-55
2021/10/03 06:29:44;;;;;;;1.60;1.20;;;22.70;52.40;;;;;;4978822;28;20499;-56
2021/10/03 06:32:10;;;;;;;1.45;1.00;;;22.70;52.40;;;;;;4966187;28;20125;-53
2021/10/03 06:34:35;;;;;;;1.38;1.00;;;22.70;52.40;;;;;;4976142;28;20038;-60
2021/10/03 06:37:01;;;;;;;1.75;1.17;;;22.70;52.40;;;;;;4967012;28;20745;-59
2021/10/03 06:39:27;;;;;;;1.45;1.00;;;22.70;52.40;;;;;;4966790;28;20041;-54
2021/10/03 06:41:52;;;;;;;2.22;1.10;;;22.70;52.40;;;;;;4968994;28;20050;-55
2021/10/03 06:44:18;;;;;;;1.27;1.00;;;22.70;52.40;;;;;;4967660;28;20418;-56
2021/10/03 06:46:43;;;;;;;1.52;1.08;;;22.70;52.90;;;;;;4968290;28;20027;-60
2021/10/03 06:49:09;;;;;;;1.95;1.40;;;22.70;52.40;;;;;;4975481;28;20085;-59
2021/10/03 06:51:35;;;;;;;1.60;1.00;;;22.70;52.40;;;;;;4980031;28;20117;-58
2021/10/03 06:54:01;;;;;;;1.23;0.93;;;22.70;52.40;;;;;;4972968;28;20023;-49
2021/10/03 06:56:26;;;;;;;1.63;1.00;;;22.70;52.50;;;;;;4977800;28;20091;-60
2021/10/03 06:58:52;;;;;;;1.58;1.10;;;22.70;52.40;;;;;;4974932;28;20026;-54
2021/10/03 07:01:18;;;;;;;1.60;1.08;;;22.70;52.50;;;;;;4965803;28;20047;-57
2021/10/03 07:03:43;;;;;;;1.63;1.17;;;22.70;52.50;;;;;;4974548;28;20034;-59
2021/10/03 07:06:10;;;;;;;1.58;1.10;;;22.70;52.50;;;;;;4968053;28;20057;-60
2021/10/03 07:08:35;;;;;;;1.52;1.00;;;22.70;52.50;;;;;;4969693;28;20038;-58
2021/10/03 07:11:01;;;;;;;1.58;1.02;;;22.70;52.50;;;;;;4975349;28;20410;-57
2021/10/03 07:13:27;;;;;;;2.05;1.10;;;22.70;52.60;;;;;;4959551;28;20379;-59
2021/10/03 07:15:52;;;;;;;2.05;1.25;;;22.70;52.60;;;;;;4968495;28;20359;-54
2021/10/03 07:18:18;;;;;;;1.20;1.00;;;22.70;52.60;;;;;;4979729;28;20364;-59
2021/10/03 07:20:44;;;;;;;2.42;1.20;;;22.70;52.70;;;;;;4962377;28;20426;-60
2021/10/03 07:23:10;;;;;;;1.60;1.10;;;22.60;52.70;;;;;;4973033;28;20103;-58
2021/10/03 07:25:35;;;;;;;2.20;1.25;;;22.60;52.80;;;;;;4957279;28;20146;-55
2021/10/03 07:28:01;;;;;;;1.92;1.25;;;22.60;52.90;;;;;;4963203;28;20367;-52
2021/10/03 07:30:27;;;;;;;2.33;1.40;;;22.60;53.00;;;;;;4967772;28;20038;-54
2021/10/03 07:32:52;;;;;;;2.88;1.60;;;22.70;53.20;;;;;;4970814;28;20042;-60
2021/10/03 07:35:18;;;;;;;2.40;1.70;;;22.60;53.30;;;;;;4966728;28;20108;-59
2021/10/03 07:37:44;;;;;;;3.05;1.80;;;22.60;53.90;;;;;;4977719;28;20058;-60
2021/10/03 07:40:10;;;;;;;2.05;1.45;;;22.60;53.40;;;;;;4972262;28;20479;-49
2021/10/03 07:42:37;;;;;;;2.05;1.55;;;22.60;53.60;;;;;;4969112;28;20045;-54
2021/10/03 07:45:05;;;;;;;2.15;1.65;;;22.60;53.60;;;;;;4966163;28;20137;-60
2021/10/03 07:47:30;;;;;;;2.53;1.58;;;22.60;53.80;;;;;;4960081;28;20026;-60
2021/10/03 07:49:56;;;;;;;2.78;1.60;;;22.60;53.80;;;;;;4961886;28;20059;-56
2021/10/03 07:52:22;;;;;;;3.00;1.65;;;22.60;53.80;;;;;;4966408;28;20046;-57
2021/10/03 07:54:47;;;;;;;2.80;1.70;;;22.60;53.80;;;;;;4970351;28;20039;-60
2021/10/03 07:57:13;;;;;;;3.22;1.50;;;22.60;53.80;;;;;;4963291;28;20027;-56
2021/10/03 07:59:39;;;;;;;2.10;1.50;;;22.60;53.80;;;;;;4967963;28;20054;-54
2021/10/03 08:02:04;;;;;;;2.70;1.70;;;22.60;53.80;;;;;;4965541;28;20038;-61
2021/10/03 08:04:30;;;;;;;2.50;1.65;;;22.70;53.80;;;;;;4961346;28;20134;-60
2021/10/03 08:06:56;;;;;;;2.33;1.60;;;22.60;53.70;;;;;;4968274;28;20046;-58
2021/10/03 08:09:22;;;;;;;2.47;1.55;;;22.60;53.70;;;;;;4959790;28;20412;-57
2021/10/03 08:11:48;;;;;;;2.65;1.73;;;22.60;53.70;;;;;;4964105;28;20088;-58
2021/10/03 08:14:13;;;;;;;3.20;1.60;;;22.60;53.70;;;;;;4964937;28;20065;-60
2021/10/03 08:16:40;;;;;;;2.50;1.80;;;22.60;53.60;;;;;;4964790;28;20746;-57
2021/10/03 08:19:05;;;;;;;2.63;1.63;;;22.60;53.60;;;;;;4959037;28;20111;-60
2021/10/03 08:21:31;;;;;;;2.20;1.60;;;22.60;53.60;;;;;;4962162;28;20031;-56
2021/10/03 08:23:57;;;;;;;2.80;1.50;;;22.50;53.60;;;;;;4959980;28;20035;-59
2021/10/03 08:26:23;;;;;;;2.38;1.63;;;22.60;53.60;;;;;;4964335;28;20692;-57
2021/10/03 08:28:48;;;;;;;2.60;1.75;;;22.60;53.60;;;;;;4965285;28;20045;-60
2021/10/03 08:31:14;;;;;;;2.33;1.50;;;22.60;53.60;;;;;;4959832;28;20391;-56
2021/10/03 08:33:40;;;;;;;2.65;1.60;;;22.60;53.60;;;;;;4958972;28;20450;-60
2021/10/03 08:36:06;;;;;;;2.38;1.52;;;22.60;53.60;;;;;;4957589;28;20037;-54
2021/10/03 08:38:32;;;;;;;2.72;1.65;;;22.50;53.50;;;;;;4966795;28;20338;-59
2021/10/03 08:40:59;;;;;;;3.40;1.63;;;22.50;53.60;;;;;;4963295;28;20035;-58
2021/10/03 08:43:25;;;;;;;2.83;1.70;;;22.60;53.70;;;;;;4966774;28;20085;-55
2021/10/03 08:45:50;;;;;;;2.75;1.70;;;22.60;53.70;;;;;;4964812;28;20042;-58
2021/10/03 08:48:16;;;;;;;3.00;1.58;;;22.60;53.70;;;;;;4967257;28;20030;-52
2021/10/03 08:50:44;;;;;;;2.58;1.58;;;22.60;53.60;;;;;;4963493;28;20108;-56
2021/10/03 08:53:10;;;;;;;2.15;1.45;;;22.60;53.60;;;;;;4968583;28;20038;-59
2021/10/03 08:55:36;;;;;;;2.80;1.70;;;22.60;53.60;;;;;;4967567;28;20461;-57
2021/10/03 08:58:02;;;;;;;3.63;1.58;;;22.70;54.10;;;;;;4965927;28;20160;-60
2021/10/03 09:00:28;;;;;;;3.60;1.90;;;22.70;53.50;;;;;;4963987;28;20110;-53
2021/10/03 09:03:01;;;;;;;3.67;2.00;;;22.70;52.90;;;;;;4966363;28;20629;-59
2021/10/03 09:05:29;;;;;;;3.47;1.90;;;22.60;52.50;;;;;;4961487;28;20070;-59
2021/10/03 09:07:58;;;;;;;3.50;2.00;;;22.70;52.50;;;;;;4968106;28;20059;-56
2021/10/03 09:10:25;;;;;;;2.80;2.00;;;22.70;52.40;;;;;;4962814;28;20049;-55
2021/10/03 09:12:54;;;;;;;2.67;1.85;;;22.70;52.50;;;;;;4967318;28;20027;-57
2021/10/03 09:15:20;;;;;;;2.65;1.90;;;22.70;52.40;;;;;;4957429;28;20041;-53
2021/10/03 09:17:54;;;;;;;2.30;1.70;;;22.70;52.40;;;;;;4968918;28;20042;-53
2021/10/03 09:20:20;;;;;;;2.85;1.80;;;22.70;52.40;;;;;;4972084;28;20067;-59
2021/10/03 09:22:56;;;;;;;3.05;2.00;;;22.70;52.40;;;;;;4967137;28;20057;-60
2021/10/03 09:25:32;;;;;;;2.65;1.98;;;22.70;52.70;;;;;;4970573;28;20027;-58
2021/10/03 09:27:57;;;;;;;2.35;1.60;;;22.70;52.50;;;;;;4970217;28;20050;-57
2021/10/03 09:30:23;;;;;;;2.22;1.60;;;22.70;52.60;;;;;;4967275;28;20061;-61
2021/10/03 09:32:57;;;;;;;2.70;1.70;;;22.70;52.60;;;;;;4968178;28;20077;-57
2021/10/03 09:35:29;;;;;;;2.78;1.95;;;22.80;52.70;;;;;;4964988;28;20031;-56
2021/10/03 09:37:55;;;;;;;2.80;1.65;;;22.70;52.70;;;;;;4963801;28;20077;-57
2021/10/03 09:40:22;;;;;;;2.53;1.65;;;22.80;52.80;;;;;;4966609;28;20062;-58
2021/10/03 09:42:59;;;;;;;2.40;1.80;;;22.70;52.90;;;;;;4963811;28;20546;-58
2021/10/03 09:45:26;;;;;;;3.13;1.80;;;22.80;53.10;;;;;;4965116;28;20689;-52
2021/10/03 09:48:06;;;;;;;3.17;2.05;;;22.70;53.30;;;;;;4958957;28;20039;-58
2021/10/03 09:50:34;;;;;;;2.53;1.65;;;22.70;53.30;;;;;;4952113;28;20043;-58
2021/10/03 09:53:00;;;;;;;3.45;2.10;;;22.80;53.30;;;;;;4965942;28;20030;-49
2021/10/03 09:55:27;;;;;;;4.18;2.20;;;22.70;53.30;;;;;;4965208;28;20027;-57
2021/10/03 09:57:57;;;;;;;3.20;1.88;;;22.70;53.40;;;;;;4959604;28;20665;-54
2021/10/03 10:00:26;;;;;;;4.00;2.55;;;22.80;53.50;;;;;;4967242;28;20062;-58
2021/10/03 10:02:53;;;;;;;6.82;3.78;;;22.80;53.60;;;;;;4967966;28;20103;-57
2021/10/03 10:05:27;;;;;;;5.72;3.53;;;22.80;53.70;;;;;;4960497;28;20085;-60
2021/10/03 10:07:54;;;;;;;7.03;4.00;;;22.80;53.70;;;;;;4972750;28;20026;-58
2021/10/03 10:10:20;;;;;;;8.35;4.45;;;22.80;53.90;;;;;;4962687;28;20043;-51
2021/10/03 10:13:03;;;;;;;9.20;5.13;;;22.80;54.00;;;;;;4964187;28;20054;-49
2021/10/03 10:15:29;;;;;;;8.65;5.13;;;22.80;54.20;;;;;;4967653;28;20023;-50
2021/10/03 10:17:55;;;;;;;10.23;5.93;;;22.80;54.30;;;;;;4977119;28;20506;-57
2021/10/03 10:20:20;;;;;;;8.68;5.20;;;22.80;54.30;;;;;;4967106;28;20124;-59
2021/10/03 10:22:56;;;;;;;8.38;4.80;;;22.80;54.40;;;;;;4978630;28;20111;-54
2021/10/03 10:25:42;;;;;;;8.05;4.53;;;22.80;54.50;;;;;;4969806;28;20097;-54
2021/10/03 10:28:28;;;;;;;9.95;5.35;;;22.80;54.50;;;;;;4970353;28;20019;-52
2021/10/03 10:31:16;;;;;;;9.75;5.32;;;22.80;54.60;;;;;;4966065;28;20035;-58
2021/10/03 10:33:51;;;;;;;14.88;6.75;;;22.80;54.60;;;;;;4964568;28;20061;-59
2021/10/03 10:36:19;;;;;;;16.95;7.65;;;22.80;54.60;;;;;;4955701;28;20359;-59
2021/10/03 10:39:07;;;;;;;15.32;8.40;;;22.80;54.60;;;;;;4969431;28;20034;-57
2021/10/03 10:41:40;;;;;;;15.75;8.05;;;22.80;54.60;;;;;;4956293;28;20059;-58
2021/10/03 10:44:24;;;;;;;13.68;8.05;;;22.80;54.50;;;;;;4967721;28;20089;-57
2021/10/03 10:46:51;;;;;;;16.08;7.95;;;22.80;54.60;;;;;;4968811;28;20120;-58
2021/10/03 10:49:37;;;;;;;15.52;8.45;;;22.80;54.50;;;;;;4973178;28;20171;-50
2021/10/03 10:52:30;;;;;;;14.20;7.60;;;22.80;54.60;;;;;;4972075;28;20112;-59
2021/10/03 10:55:04;;;;;;;15.70;8.00;;;22.80;54.70;;;;;;4969645;28;20050;-48
2021/10/03 10:57:57;;;;;;;15.43;7.80;;;22.80;54.60;;;;;;4972216;28;20049;-54
2021/10/03 11:00:28;;;;;;;14.48;7.07;;;22.80;54.60;;;;;;4964842;28;20514;-48
2021/10/03 11:02:56;;;;;;;15.20;7.57;;;22.80;54.60;;;;;;4970677;28;20063;-53
2021/10/03 11:05:48;;;;;;;15.73;8.15;;;22.80;54.60;;;;;;4954767;28;20118;-51
2021/10/03 11:08:16;;;;;;;11.98;6.80;;;22.80;54.60;;;;;;4961818;28;20106;-51
2021/10/03 11:10:57;;;;;;;12.88;6.65;;;22.80;54.60;;;;;;4956609;28;20054;-57
2021/10/03 11:13:40;;;;;;;10.55;5.85;;;22.80;54.50;;;;;;4956353;28;20049;-59
2021/10/03 11:16:34;;;;;;;12.15;6.15;;;22.80;54.60;;;;;;4970472;28;20034;-56
2021/10/03 11:19:24;;;;;;;10.90;5.43;;;22.80;54.50;;;;;;4974199;28;20057;-58
2021/10/03 11:21:58;;;;;;;11.48;5.78;;;22.80;54.50;;;;;;4958652;28;20089;-55
2021/10/03 11:24:30;;;;;;;12.18;6.32;;;22.80;54.50;;;;;;4970900;28;20574;-56
2021/10/03 11:27:00;;;;;;;11.07;5.70;;;22.80;54.40;;;;;;4967363;28;20053;-54
2021/10/03 11:29:31;;;;;;;9.95;5.57;;;22.90;54.40;;;;;;4964499;28;20470;-54
2021/10/03 11:32:04;;;;;;;9.10;5.00;;;22.90;54.30;;;;;;4965261;28;20034;-53
2021/10/03 11:34:44;;;;;;;9.18;4.90;;;22.90;54.30;;;;;;4961939;28;20034;-54
2021/10/03 11:37:29;;;;;;;9.20;5.00;;;22.90;54.30;;;;;;4965477;28;20045;-56
2021/10/03 11:39:57;;;;;;;8.45;4.45;;;22.90;54.30;;;;;;4955929;28;20806;-52
2021/10/03 11:42:31;;;;;;;9.80;5.18;;;22.90;54.30;;;;;;4966489;28;20109;-59
2021/10/03 11:45:20;;;;;;;9.52;5.13;;;22.90;54.20;;;;;;4969897;28;20031;-58
2021/10/03 11:47:57;;;;;;;8.70;4.80;;;22.90;54.20;;;;;;4969504;28;20026;-59
2021/10/03 11:50:27;;;;;;;7.90;4.40;;;23.00;54.20;;;;;;4961747;28;20030;-55
2021/10/03 11:52:56;;;;;;;9.57;5.05;;;22.90;54.20;;;;;;4962057;28;20027;-59
2021/10/03 11:55:32;;;;;;;8.05;4.70;;;22.90;54.20;;;;;;4976270;28;20069;-52
2021/10/03 11:58:05;;;;;;;9.70;4.88;;;22.90;54.20;;;;;;4977600;28;20556;-55
2021/10/03 12:00:32;;;;;;;7.20;4.50;;;22.90;54.20;;;;;;4972582;28;20077;-52
2021/10/03 12:03:05;;;;;;;7.72;4.53;;;22.90;54.20;;;;;;4976761;28;20814;-53
2021/10/03 12:05:32;;;;;;;7.93;4.43;;;22.90;54.20;;;;;;4972389;28;20027;-56
2021/10/03 12:08:14;;;;;;;8.85;4.45;;;22.90;54.20;;;;;;4975480;28;20085;-58
2021/10/03 12:10:48;;;;;;;8.13;4.18;;;22.90;54.20;;;;;;4972843;28;20539;-58
2021/10/03 12:13:17;;;;;;;7.18;3.95;;;22.90;54.20;;;;;;4972609;28;20030;-52
2021/10/03 12:15:50;;;;;;;9.93;4.03;;;22.90;54.20;;;;;;4962064;28;20161;-60
2021/10/03 12:18:24;;;;;;;7.75;3.80;;;22.90;54.20;;;;;;4960317;28;20046;-56
2021/10/03 12:21:02;;;;;;;9.43;4.60;;;22.90;54.20;;;;;;4958944;28;20030;-57
2021/10/03 12:23:51;;;;;;;6.93;3.92;;;22.90;54.20;;;;;;4958830;28;20105;-59
2021/10/03 12:26:26;;;;;;;7.05;4.20;;;23.00;54.30;;;;;;4967249;28;20169;-53
2021/10/03 12:29:07;;;;;;;7.95;3.80;;;22.90;54.20;;;;;;4968350;28;20034;-52
2021/10/03 12:32:13;;;;;;;6.68;3.58;;;22.90;54.20;;;;;;4957887;28;20660;-58
2021/10/03 12:34:43;;;;;;;6.78;3.47;;;22.90;54.30;;;;;;4968769;28;20077;-58
2021/10/03 12:37:14;;;;;;;5.43;3.25;;;22.90;54.20;;;;;;4965465;28;20074;-58
2021/10/03 12:39:45;;;;;;;6.47;3.35;;;22.90;54.20;;;;;;4966877;28;20427;-54
2021/10/03 12:42:15;;;;;;;6.53;3.20;;;22.90;54.20;;;;;;4971854;28;20038;-58
2021/10/03 12:44:44;;;;;;;6.70;3.42;;;22.90;54.20;;;;;;4966670;28;20061;-55
2021/10/03 12:47:10;;;;;;;5.63;3.13;;;22.90;54.20;;;;;;4963200;28;20022;-53
2021/10/03 12:49:36;;;;;;;5.85;3.17;;;22.90;54.20;;;;;;4964114;28;20030;-52
2021/10/03 12:52:04;;;;;;;5.80;3.17;;;22.90;54.20;;;;;;4967795;28;20431;-52